KELM/ELM METAR and TAF weather

Enter ICAO airport designator
Station Type Date Time Source
KELM METAR 2022/11/30 16:53 UTC NOAA

KELM 301653Z 19015G26KT 10SM -RA OVC023 10/06 A2952 RMK AO2 PK WND 21029/1643 RAE07B53 SLP999 P0000 T01000061


Station Type Date Time Source
KELM Decoded METAR 2022/11/30 16:53 UTC NOAA

ELMIRA COUNTY AIRPORT, NY, United States (KELM) 42-10N 76-54W 302M
Nov 30, 2022 - 11:53 AM EST / 2022.11.30 1653 UTC
Wind: from the S (190 degrees) at 17 MPH (15 KT) gusting to 30 MPH (26 KT):0
Visibility: 10 mile(s):0
Sky conditions: overcast
Weather: light rain
Precipitation last hour: A trace
Temperature: 50.0 F (10.0 C)
Dew Point: 43.0 F (6.1 C)
Relative Humidity: 76%
Pressure (altimeter): 29.52 in. Hg (999 hPa)
ob: KELM 301653Z 19015G26KT 10SM -RA OVC023 10/06 A2952 RMK AO2 PK WND 21029/1643 RAE07B53 SLP999 P0000 T01000061
cycle: 17

Station Type Date Time Source
KELM TAF 2022/11/30 15:24 UTC NOAA

TAF
AMD KELM 301522Z 3015/0112 18014G22KT P6SM -SHRA OVC015 WS020/19050KT
FM301620 19015G25KT 2SM SHRA BR OVC008 WS020/18055KT
FM301800 23018G29KT 2SM SHRA BR BKN008
FM302100 26018G28KT P6SM BKN040

Example: see airport list